createdAt,value
2018-10-17T00:01:11.816Z,13.62
2018-10-17T00:03:42.968Z,13.58
2018-10-17T00:06:11.887Z,13.54
2018-10-17T00:08:41.753Z,13.53
2018-10-17T00:11:11.685Z,13.52
2018-10-17T00:13:42.861Z,13.54
2018-10-17T00:16:12.529Z,13.57
2018-10-17T00:18:42.747Z,13.57
2018-10-17T00:21:11.672Z,13.55
2018-10-17T00:23:42.081Z,13.52
2018-10-17T00:26:11.488Z,13.47
2018-10-17T00:28:41.044Z,13.46
2018-10-17T00:31:10.673Z,13.45
2018-10-17T00:33:40.957Z,13.43
2018-10-17T00:36:10.945Z,13.39
2018-10-17T00:38:40.406Z,13.37
2018-10-17T00:41:10.641Z,13.37
2018-10-17T00:43:41.135Z,13.35
2018-10-17T00:46:11.587Z,13.35
2018-10-17T00:48:41.215Z,13.36
2018-10-17T00:51:10.860Z,13.40
2018-10-17T00:53:43.648Z,13.45
2018-10-17T00:56:12.737Z,13.49
2018-10-17T00:58:53.393Z,13.56
2018-10-17T01:01:22.646Z,13.65
2018-10-17T01:03:51.717Z,13.70
2018-10-17T01:06:20.581Z,13.75
2018-10-17T01:08:49.604Z,13.82
2018-10-17T01:11:18.863Z,13.88
2018-10-17T01:13:48.384Z,13.93
2018-10-17T01:16:18.415Z,13.96
2018-10-17T01:18:47.870Z,14.00
2018-10-17T01:21:16.710Z,14.02
2018-10-17T01:23:45.688Z,14.04
2018-10-17T01:26:15.211Z,14.09
2018-10-17T01:28:44.516Z,14.17
2018-10-17T01:31:13.405Z,14.26
2018-10-17T01:33:43.467Z,14.33
2018-10-17T01:36:12.345Z,14.40
2018-10-17T01:38:42.218Z,14.46
2018-10-17T01:41:12.463Z,14.54
2018-10-17T01:43:42.866Z,14.61
2018-10-17T01:46:11.828Z,14.68
2018-10-17T01:48:42.044Z,14.74
2018-10-17T01:51:11.901Z,14.81
2018-10-17T01:53:41.398Z,14.88
2018-10-17T01:56:11.472Z,14.94
2018-10-17T01:58:41.048Z,14.98
2018-10-17T02:01:11.401Z,15.04
2018-10-17T02:03:40.578Z,15.08
2018-10-17T02:06:09.877Z,15.14
2018-10-17T02:11:19.515Z,15.27
2018-10-17T02:13:49.009Z,15.29
2018-10-17T02:16:18.856Z,15.32
2018-10-17T02:18:48.496Z,15.35
2018-10-17T02:21:17.361Z,15.38
2018-10-17T02:23:46.272Z,15.38
2018-10-17T02:26:15.763Z,15.38
2018-10-17T02:28:44.636Z,15.38
2018-10-17T02:31:13.657Z,15.37
2018-10-17T02:33:43.128Z,15.38
2018-10-17T02:36:12.469Z,15.40
2018-10-17T02:38:41.892Z,15.43
2018-10-17T02:41:11.152Z,15.45
2018-10-17T02:43:41.421Z,15.48
2018-10-17T02:46:11.314Z,15.52
2018-10-17T02:48:41.549Z,15.56
2018-10-17T02:51:10.838Z,15.59
2018-10-17T02:53:40.137Z,15.63
2018-10-17T02:56:09.336Z,15.65
2018-10-17T02:58:38.747Z,15.68
2018-10-17T03:02:10.955Z,15.71
2018-10-17T03:04:40.180Z,15.71
2018-10-17T03:07:10.522Z,15.72
2018-10-17T03:09:40.311Z,15.75
2018-10-17T03:12:10.462Z,15.75
2018-10-17T03:14:40.315Z,15.74
2018-10-17T03:17:09.937Z,15.75
2018-10-17T03:19:39.410Z,15.76
2018-10-17T03:22:10.280Z,15.77
2018-10-17T03:24:40.137Z,15.76
2018-10-17T03:27:10.727Z,15.77
2018-10-17T03:29:39.919Z,15.81
2018-10-17T03:32:09.298Z,15.80
2018-10-17T03:34:39.916Z,15.80
2018-10-17T03:37:09.638Z,15.78
2018-10-17T03:39:38.823Z,15.78
2018-10-17T03:42:08.396Z,15.77
2018-10-17T03:44:38.338Z,15.76
2018-10-17T03:47:07.450Z,15.77
2018-10-17T03:49:36.320Z,15.78
2018-10-17T03:52:05.549Z,15.79
2018-10-17T03:54:34.369Z,15.79
2018-10-17T03:57:03.303Z,15.80
2018-10-17T03:59:33.000Z,15.79
2018-10-17T04:02:02.393Z,15.78
2018-10-17T04:04:31.367Z,15.74
2018-10-17T04:07:01.301Z,15.76
2018-10-17T04:09:30.146Z,15.77
2018-10-17T04:11:59.727Z,15.77
2018-10-17T04:14:29.293Z,15.78
2018-10-17T04:16:58.190Z,15.79
2018-10-17T04:19:27.222Z,15.82
2018-10-17T04:21:56.205Z,15.83
2018-10-17T04:24:25.999Z,15.78
2018-10-17T04:26:55.356Z,15.78
2018-10-17T04:29:24.453Z,15.79
2018-10-17T04:31:53.267Z,15.78
2018-10-17T04:34:22.779Z,15.79
2018-10-17T04:36:51.691Z,15.75
2018-10-17T04:39:20.893Z,15.71
2018-10-17T04:41:49.798Z,15.72
2018-10-17T04:44:19.083Z,15.74
2018-10-17T04:46:47.965Z,15.76
2018-10-17T04:49:16.840Z,15.75
2018-10-17T04:51:45.756Z,15.70
2018-10-17T04:54:29.296Z,15.65
2018-10-17T04:56:58.194Z,15.64
2018-10-17T04:59:27.841Z,15.63
2018-10-17T05:01:57.410Z,15.62
2018-10-17T05:04:27.708Z,15.63
2018-10-17T05:06:56.630Z,15.64
2018-10-17T05:09:25.603Z,15.65
2018-10-17T05:11:54.436Z,15.67
2018-10-17T05:14:24.150Z,15.67
2018-10-17T05:16:53.075Z,15.70
2018-10-17T05:19:23.160Z,15.70
2018-10-17T05:21:52.033Z,15.74
2018-10-17T05:24:21.454Z,15.73
2018-10-17T05:26:50.770Z,15.73
2018-10-17T05:29:19.687Z,15.71
2018-10-17T05:31:49.081Z,15.70
2018-10-17T05:34:20.068Z,15.68
2018-10-17T05:36:48.854Z,15.68
2018-10-17T05:39:17.743Z,15.67
2018-10-17T05:41:46.620Z,15.67
2018-10-17T05:44:16.155Z,15.63
2018-10-17T05:46:45.001Z,15.58
2018-10-17T05:49:14.883Z,15.50
2018-10-17T05:51:43.669Z,15.45
2018-10-17T05:54:12.522Z,15.41
2018-10-17T05:56:41.623Z,15.42
2018-10-17T05:59:11.576Z,15.41
2018-10-17T06:01:42.051Z,15.40
2018-10-17T06:04:11.984Z,15.38
2018-10-17T06:06:41.768Z,15.37
2018-10-17T06:09:12.481Z,15.38
2018-10-17T06:11:42.596Z,15.41
2018-10-17T06:14:15.949Z,15.45
2018-10-17T06:16:45.866Z,15.49
2018-10-17T06:19:14.899Z,15.53
2018-10-17T06:21:43.756Z,15.56
2018-10-17T06:24:13.392Z,15.53
2018-10-17T06:26:42.776Z,15.48
2018-10-17T06:29:12.536Z,15.46
2018-10-17T06:31:41.634Z,15.44
2018-10-17T06:34:12.404Z,15.43
2018-10-17T06:36:41.663Z,15.43
2018-10-17T06:39:12.247Z,15.43
2018-10-17T06:41:42.504Z,15.44
2018-10-17T06:44:12.256Z,15.50
2018-10-17T06:46:41.872Z,15.57
2018-10-17T06:49:11.667Z,15.60
2018-10-17T06:51:40.659Z,15.59
2018-10-17T06:54:10.181Z,15.58
2018-10-17T06:56:39.813Z,15.60
2018-10-17T06:59:09.658Z,15.63
2018-10-17T07:01:39.778Z,15.67
2018-10-17T07:04:08.725Z,15.74
2018-10-17T07:06:37.624Z,15.78
2018-10-17T07:09:09.858Z,15.84
2018-10-17T07:11:39.566Z,15.92
2018-10-17T07:14:10.263Z,15.91
2018-10-17T07:16:39.285Z,15.92
2018-10-17T07:19:08.464Z,15.93
2018-10-17T07:21:37.356Z,15.97
2018-10-17T07:24:06.848Z,15.99
2018-10-17T07:26:36.316Z,16.00
2018-10-17T07:29:05.225Z,16.06
2018-10-17T07:31:34.019Z,16.08
2018-10-17T07:34:03.304Z,16.13
2018-10-17T07:36:32.156Z,16.21
2018-10-17T07:39:01.006Z,16.28
2018-10-17T07:41:30.133Z,16.32
2018-10-17T07:44:31.780Z,16.32
2018-10-17T07:47:00.615Z,16.34
2018-10-17T07:49:29.421Z,16.33
2018-10-17T07:51:58.369Z,16.28
2018-10-17T07:54:27.407Z,16.25
2018-10-17T07:56:56.310Z,16.31
2018-10-17T07:59:25.866Z,16.37
2018-10-17T08:01:55.230Z,16.41
2018-10-17T08:04:24.045Z,16.46
2018-10-17T08:06:52.849Z,16.52
2018-10-17T08:09:22.612Z,16.57
2018-10-17T08:11:51.436Z,16.61
2018-10-17T08:14:20.803Z,16.67
2018-10-17T08:16:49.685Z,16.71
2018-10-17T08:19:18.491Z,16.72
2018-10-17T08:21:47.320Z,16.80
2018-10-17T08:24:16.732Z,16.82
2018-10-17T08:26:46.188Z,16.88
2018-10-17T08:29:15.496Z,16.95
2018-10-17T08:31:44.476Z,17.00
2018-10-17T08:34:14.315Z,17.06
2018-10-17T08:36:43.311Z,17.07
2018-10-17T08:39:12.124Z,17.13
2018-10-17T08:41:41.876Z,17.19
2018-10-17T08:44:11.571Z,17.29
2018-10-17T08:46:40.612Z,17.37
2018-10-17T08:49:09.645Z,17.43
2018-10-17T08:51:38.649Z,17.49
2018-10-17T08:54:07.638Z,17.57
2018-10-17T08:56:36.632Z,17.64
2018-10-17T08:59:06.598Z,17.66
2018-10-17T09:01:36.132Z,17.74
2018-10-17T09:04:05.014Z,17.82
2018-10-17T09:06:34.864Z,17.91
2018-10-17T09:09:03.940Z,17.96
2018-10-17T09:11:32.848Z,18.01
2018-10-17T09:14:02.352Z,18.02
2018-10-17T09:16:31.904Z,18.09
2018-10-17T09:20:03.595Z,18.16
2018-10-17T09:22:32.642Z,18.27
2018-10-17T09:25:02.214Z,18.33
2018-10-17T09:27:31.623Z,18.41
2018-10-17T09:30:00.673Z,18.48
2018-10-17T09:32:29.510Z,18.58
2018-10-17T09:34:59.320Z,18.62
2018-10-17T09:37:28.135Z,18.63
2018-10-17T09:39:57.041Z,18.66
2018-10-17T09:42:26.819Z,18.68
2018-10-17T09:44:55.655Z,18.71
2018-10-17T09:47:25.034Z,18.71
2018-10-17T09:49:53.941Z,18.71
2018-10-17T09:52:22.827Z,18.74
2018-10-17T09:54:51.676Z,18.81
2018-10-17T09:57:20.493Z,18.89
2018-10-17T09:59:50.483Z,18.96
2018-10-17T10:02:19.944Z,19.07
2018-10-17T10:04:48.677Z,19.17
2018-10-17T10:07:17.557Z,19.28
2018-10-17T10:09:46.391Z,19.37
2018-10-17T10:12:15.241Z,19.45
2018-10-17T10:14:44.580Z,19.53
2018-10-17T10:17:13.530Z,19.58
2018-10-17T10:19:42.833Z,19.65
2018-10-17T10:22:11.856Z,19.70
2018-10-17T10:24:42.075Z,19.74
2018-10-17T10:27:12.293Z,19.79
2018-10-17T10:29:41.809Z,19.86
2018-10-17T10:32:11.051Z,19.97
2018-10-17T10:34:41.467Z,20.09
2018-10-17T10:37:10.540Z,20.21
2018-10-17T10:39:39.708Z,20.32
2018-10-17T10:42:08.970Z,20.39
2018-10-17T10:44:41.501Z,20.49
2018-10-17T10:47:11.449Z,20.54
2018-10-17T10:49:40.702Z,20.63
2018-10-17T10:52:09.825Z,20.72
2018-10-17T10:54:38.956Z,20.84
2018-10-17T10:57:07.888Z,20.92
2018-10-17T10:59:38.961Z,21.03
2018-10-17T11:02:08.827Z,21.17
2018-10-17T11:04:37.709Z,21.28
2018-10-17T11:07:06.650Z,21.33
2018-10-17T11:09:35.520Z,21.44
2018-10-17T11:12:04.496Z,21.56
2018-10-17T11:14:34.023Z,21.67
2018-10-17T11:17:03.593Z,21.78
2018-10-17T11:19:32.405Z,21.81
2018-10-17T11:22:01.387Z,21.78
2018-10-17T11:24:31.441Z,21.77
2018-10-17T11:27:01.126Z,21.88
2018-10-17T11:29:29.869Z,21.92
2018-10-17T11:31:58.810Z,22.04
2018-10-17T11:34:28.316Z,22.16
2018-10-17T11:36:57.158Z,22.24
2018-10-17T11:39:26.005Z,22.25
2018-10-17T11:41:54.980Z,22.27
2018-10-17T11:44:24.292Z,22.28
2018-10-17T11:46:54.729Z,22.29
2018-10-17T11:49:23.593Z,22.32
2018-10-17T11:51:52.443Z,22.37
2018-10-17T11:54:21.447Z,22.35
2018-10-17T11:56:50.477Z,22.35
2018-10-17T11:59:20.032Z,22.36
2018-10-17T12:01:49.425Z,22.43
2018-10-17T12:04:18.423Z,22.47
2018-10-17T12:06:47.126Z,22.54
2018-10-17T12:09:16.084Z,22.57
2018-10-17T12:11:44.900Z,22.63
2018-10-17T12:14:14.827Z,22.67
2018-10-17T12:16:43.641Z,22.74
2018-10-17T12:19:12.527Z,22.68
2018-10-17T12:21:41.808Z,22.72
2018-10-17T12:24:11.631Z,22.79
2018-10-17T12:26:41.383Z,22.85
2018-10-17T12:29:11.231Z,22.84
2018-10-17T12:31:40.498Z,22.83
2018-10-17T12:34:10.571Z,22.81
2018-10-17T12:36:39.667Z,22.77
2018-10-17T12:39:10.940Z,22.79
2018-10-17T12:41:40.087Z,22.81
2018-10-17T12:44:10.458Z,22.84
2018-10-17T12:46:39.675Z,22.86
2018-10-17T12:49:09.854Z,22.87
2018-10-17T12:51:39.062Z,22.90
2018-10-17T12:54:07.934Z,22.89
2018-10-17T12:56:36.955Z,22.86
2018-10-17T12:59:06.686Z,22.87
2018-10-17T13:01:36.124Z,22.88
2018-10-17T13:04:05.063Z,22.87
2018-10-17T13:06:33.870Z,22.83
2018-10-17T13:09:02.703Z,22.82
2018-10-17T13:11:32.222Z,22.80
2018-10-17T13:14:02.753Z,22.80
2018-10-17T13:16:33.116Z,22.80
2018-10-17T13:19:02.056Z,22.80
2018-10-17T13:21:31.056Z,22.81
2018-10-17T13:24:00.287Z,22.77
2018-10-17T13:26:29.800Z,22.74
2018-10-17T13:28:58.753Z,22.71
2018-10-17T13:31:29.257Z,22.70
2018-10-17T13:33:58.828Z,22.65
2018-10-17T13:36:29.230Z,22.61
2018-10-17T13:38:58.033Z,22.59
2018-10-17T13:41:26.931Z,22.56
2018-10-17T13:43:56.175Z,22.55
2018-10-17T13:46:25.021Z,22.54
2018-10-17T13:48:53.968Z,22.53
2018-10-17T13:51:22.874Z,22.54
2018-10-17T13:53:51.743Z,22.52
2018-10-17T13:56:20.940Z,22.50
2018-10-17T13:58:50.447Z,22.48
2018-10-17T14:01:20.020Z,22.40
2018-10-17T14:03:49.447Z,22.33
2018-10-17T14:06:18.535Z,22.25
2018-10-17T14:08:48.371Z,22.18
2018-10-17T14:11:17.251Z,22.12
2018-10-17T14:13:46.688Z,22.09
2018-10-17T14:16:16.117Z,22.04
2018-10-17T14:18:44.951Z,21.99
2018-10-17T14:21:13.835Z,21.94
2018-10-17T14:23:44.063Z,21.89
2018-10-17T14:26:13.971Z,21.86
2018-10-17T14:28:42.873Z,21.81
2018-10-17T14:31:12.056Z,21.79
2018-10-17T14:33:42.382Z,21.76
2018-10-17T14:36:12.261Z,21.68
2018-10-17T14:38:44.203Z,21.60
2018-10-17T14:41:13.125Z,21.54
2018-10-17T14:43:43.288Z,21.49
2018-10-17T14:46:12.302Z,21.43
2018-10-17T14:48:41.814Z,21.36
2018-10-17T14:51:11.516Z,21.28
2018-10-17T14:53:41.337Z,21.19
2018-10-17T14:56:11.533Z,21.12
2018-10-17T14:58:41.433Z,21.06
2018-10-17T15:01:11.296Z,20.97
2018-10-17T15:03:41.372Z,20.92
2018-10-17T15:06:11.136Z,20.87
2018-10-17T15:08:40.129Z,20.80
2018-10-17T15:11:10.280Z,20.73
2018-10-17T15:13:39.815Z,20.62
2018-10-17T15:16:09.799Z,20.56
2018-10-17T15:18:38.754Z,20.49
2018-10-17T15:21:07.680Z,20.41
2018-10-17T15:23:36.502Z,20.34
2018-10-17T15:26:06.283Z,20.26
2018-10-17T15:28:35.073Z,20.20
2018-10-17T15:31:03.927Z,20.13
2018-10-17T15:33:33.461Z,20.06
2018-10-17T15:36:02.388Z,19.99
2018-10-17T15:38:31.123Z,19.92
2018-10-17T15:41:00.696Z,19.85
2018-10-17T15:43:30.294Z,19.79
2018-10-17T15:45:59.103Z,19.72
2018-10-17T15:48:27.929Z,19.66
2018-10-17T15:50:56.782Z,19.59
2018-10-17T15:53:25.642Z,19.51
2018-10-17T15:55:54.852Z,19.42
2018-10-17T15:58:23.684Z,19.31
2018-10-17T16:00:53.385Z,19.20
2018-10-17T16:03:22.772Z,19.07
2018-10-17T16:05:52.609Z,18.98
2018-10-17T16:08:21.746Z,18.91
2018-10-17T16:10:50.653Z,18.86
2018-10-17T16:13:19.481Z,18.83
2018-10-17T16:15:49.059Z,18.80
2018-10-17T16:18:18.191Z,18.76
2018-10-17T16:20:46.911Z,18.70
2018-10-17T16:23:15.831Z,18.64
2018-10-17T16:25:45.236Z,18.58
2018-10-17T16:28:13.978Z,18.47
2018-10-17T16:31:46.281Z,18.42
2018-10-17T16:34:15.638Z,18.31
2018-10-17T16:36:44.411Z,18.21
2018-10-17T16:39:13.340Z,18.12
2018-10-17T16:41:42.350Z,18.04
2018-10-17T16:44:12.285Z,18.00
2018-10-17T16:46:42.024Z,17.94
2018-10-17T16:49:11.681Z,17.90
2018-10-17T16:51:41.540Z,17.85
2018-10-17T16:54:11.195Z,17.80
2018-10-17T16:56:40.278Z,17.76
2018-10-17T16:59:10.799Z,17.71
2018-10-17T17:01:40.549Z,17.66
2018-10-17T17:04:10.582Z,17.63
2018-10-17T17:06:40.497Z,17.62
2018-10-17T17:09:10.642Z,17.58
2018-10-17T17:11:40.795Z,17.57
2018-10-17T17:14:10.757Z,17.58
2018-10-17T17:16:40.863Z,17.59
2018-10-17T17:19:09.924Z,17.57
2018-10-17T17:21:39.455Z,17.57
2018-10-17T17:24:09.142Z,17.53
2018-10-17T17:26:40.737Z,17.51
2018-10-17T17:29:09.805Z,17.49
2018-10-17T17:31:40.927Z,17.46
2018-10-17T17:34:11.506Z,17.43
2018-10-17T17:36:41.393Z,17.40
2018-10-17T17:39:11.104Z,17.37
2018-10-17T17:41:40.886Z,17.36
2018-10-17T17:44:10.773Z,17.33
2018-10-17T17:46:39.997Z,17.32
2018-10-17T17:49:09.387Z,17.27
2018-10-17T17:51:39.956Z,17.25
2018-10-17T17:54:09.324Z,17.24
2018-10-17T17:56:38.202Z,17.24
2018-10-17T17:59:08.113Z,17.21
2018-10-17T18:01:37.652Z,17.19
2018-10-17T18:04:06.533Z,17.17
2018-10-17T18:06:35.355Z,17.16
2018-10-17T18:09:05.215Z,17.16
2018-10-17T18:11:34.079Z,17.14
2018-10-17T18:14:04.423Z,17.13
2018-10-17T18:16:33.779Z,17.09
2018-10-17T18:19:02.552Z,17.07
2018-10-17T18:21:31.376Z,17.05
2018-10-17T18:24:00.178Z,17.03
2018-10-17T18:26:29.799Z,17.01
2018-10-17T18:28:58.559Z,17.00
2018-10-17T18:31:28.358Z,17.00
2018-10-17T18:33:58.240Z,16.98
2018-10-17T18:36:27.849Z,16.95
2018-10-17T18:38:56.691Z,16.96
2018-10-17T18:41:25.567Z,16.95
2018-10-17T18:43:55.711Z,16.95
2018-10-17T18:46:24.571Z,16.93
2018-10-17T18:48:53.365Z,16.91
2018-10-17T18:51:22.251Z,16.88
2018-10-17T18:53:51.045Z,16.87
2018-10-17T18:56:19.945Z,16.86
2018-10-17T18:58:49.602Z,16.86
2018-10-17T19:01:18.943Z,16.88
2018-10-17T19:03:48.206Z,16.87
2018-10-17T19:06:17.031Z,16.88
2018-10-17T19:08:45.923Z,16.88
2018-10-17T19:11:15.104Z,16.89
2018-10-17T19:13:44.874Z,16.90
2018-10-17T19:16:14.458Z,16.92
2018-10-17T19:18:43.246Z,16.94
2018-10-17T19:21:12.775Z,16.96
2018-10-17T19:23:43.333Z,16.97
2018-10-17T19:26:14.187Z,16.99
2018-10-17T19:28:43.032Z,16.99
2018-10-17T19:31:12.894Z,16.98
2018-10-17T19:33:42.463Z,16.98
2018-10-17T19:36:13.014Z,16.99
2018-10-17T19:38:42.415Z,17.00
2018-10-17T19:41:11.697Z,17.00
2018-10-17T19:43:41.845Z,17.01
2018-10-17T19:46:11.642Z,17.00
2018-10-17T19:48:41.484Z,17.03
2018-10-17T19:51:11.320Z,17.01
2018-10-17T19:53:41.143Z,16.99
2018-10-17T19:56:11.503Z,17.00
2018-10-17T19:58:41.286Z,16.98
2018-10-17T20:01:11.191Z,16.97
2018-10-17T20:03:41.750Z,16.94
2018-10-17T20:06:11.400Z,16.94
2018-10-17T20:08:41.287Z,16.94
2018-10-17T20:11:10.862Z,16.92
2018-10-17T20:13:40.580Z,16.92
2018-10-17T20:16:11.531Z,16.92
2018-10-17T20:18:40.825Z,16.88
2018-10-17T20:21:16.859Z,16.85
2018-10-17T20:23:45.617Z,16.83
2018-10-17T20:26:15.266Z,16.78
2018-10-17T20:28:44.115Z,16.75
2018-10-17T20:31:12.958Z,16.76
2018-10-17T20:33:42.545Z,16.74
2018-10-17T20:36:14.589Z,16.73
2018-10-17T20:38:43.477Z,16.71
2018-10-17T20:41:12.769Z,16.68
2018-10-17T20:43:43.139Z,16.66
2018-10-17T20:46:12.520Z,16.64
2018-10-17T20:48:42.462Z,16.63
2018-10-17T20:51:12.092Z,16.60
2018-10-17T20:53:42.656Z,16.57
2018-10-17T20:56:12.504Z,16.54
2018-10-17T20:58:41.913Z,16.51
2018-10-17T21:01:11.910Z,16.46
2018-10-17T21:03:42.305Z,16.42
2018-10-17T21:06:12.075Z,16.37
2018-10-17T21:08:41.092Z,16.34
2018-10-17T21:11:11.050Z,16.32
2018-10-17T21:13:41.382Z,16.30
2018-10-17T21:16:11.792Z,16.27
2018-10-17T21:18:41.285Z,16.24
2018-10-17T21:21:10.572Z,16.22
2018-10-17T21:23:40.221Z,16.20
2018-10-17T21:26:15.522Z,16.18
2018-10-17T21:28:44.331Z,16.17
2018-10-17T21:31:13.226Z,16.14
2018-10-17T21:33:42.778Z,16.13
2018-10-17T21:36:12.231Z,16.10
2018-10-17T21:41:23.887Z,16.08
2018-10-17T21:43:53.608Z,16.04
2018-10-17T21:46:22.622Z,16.01
2018-10-17T21:48:51.427Z,15.97
2018-10-17T21:51:21.066Z,15.93
2018-10-17T21:53:49.930Z,15.91
2018-10-17T21:56:19.168Z,15.88
2018-10-17T21:58:48.898Z,15.87
2018-10-17T22:01:18.494Z,15.85
2018-10-17T22:03:47.769Z,15.84
2018-10-17T22:06:17.077Z,15.82
2018-10-17T22:08:45.987Z,15.81
2018-10-17T22:11:14.886Z,15.78
2018-10-17T22:13:44.590Z,15.78
2018-10-17T22:16:14.585Z,15.78
2018-10-17T22:18:43.433Z,15.75
2018-10-17T22:21:12.438Z,15.73
2018-10-17T22:23:42.311Z,15.71
2018-10-17T22:26:15.116Z,15.70
2018-10-17T22:28:43.949Z,15.71
2018-10-17T22:31:13.038Z,15.70
2018-10-17T22:33:43.775Z,15.69
2018-10-17T22:36:13.670Z,15.70
2018-10-17T22:38:42.673Z,15.67
2018-10-17T22:41:15.794Z,15.66
2018-10-17T22:43:45.711Z,15.68
2018-10-17T22:46:15.012Z,15.65
2018-10-17T22:48:44.721Z,15.64
2018-10-17T22:51:13.577Z,15.61
2018-10-17T22:53:42.714Z,15.61
2018-10-17T22:56:12.711Z,15.59
2018-10-17T22:58:42.076Z,15.55
2018-10-17T23:01:12.628Z,15.56
2018-10-17T23:03:42.413Z,15.56
2018-10-17T23:06:12.183Z,15.57
2018-10-17T23:08:41.578Z,15.57
2018-10-17T23:11:10.950Z,15.58
2018-10-17T23:13:41.298Z,15.56
2018-10-17T23:16:12.097Z,15.57
2018-10-17T23:18:41.362Z,15.56
2018-10-17T23:21:11.161Z,15.54
2018-10-17T23:23:40.811Z,15.53
2018-10-17T23:26:15.901Z,15.48
2018-10-17T23:28:44.691Z,15.45
2018-10-17T23:31:13.593Z,15.43
2018-10-17T23:33:43.150Z,15.43
2018-10-17T23:36:12.310Z,15.42
2018-10-17T23:38:41.818Z,15.42
2018-10-17T23:41:12.217Z,15.42
2018-10-17T23:43:41.935Z,15.40
2018-10-17T23:46:12.004Z,15.40
2018-10-17T23:48:41.221Z,15.39
2018-10-17T23:51:10.485Z,15.40
2018-10-17T23:53:40.519Z,15.42
2018-10-17T23:56:09.963Z,15.45
2018-10-17T23:58:39.097Z,15.47
